sensor_id;sensor_type;location;lat;lon;timestamp;P1;durP1;ratioP1;P2;durP2;ratioP2
48189;SDS011;33980;47.436;18.926;2023-11-21T00:01:28;10.15;;;6.18;;
48189;SDS011;33980;47.436;18.926;2023-11-21T00:03:57;9.20;;;5.28;;
48189;SDS011;33980;47.436;18.926;2023-11-21T00:06:25;8.93;;;4.72;;
48189;SDS011;33980;47.436;18.926;2023-11-21T00:08:55;9.93;;;4.45;;
48189;SDS011;33980;47.436;18.926;2023-11-21T00:11:24;9.23;;;5.27;;
48189;SDS011;33980;47.436;18.926;2023-11-21T00:13:53;7.85;;;4.22;;
48189;SDS011;33980;47.436;18.926;2023-11-21T00:16:22;9.48;;;4.82;;
48189;SDS011;33980;47.436;18.926;2023-11-21T00:18:53;7.37;;;4.40;;
48189;SDS011;33980;47.436;18.926;2023-11-21T00:21:21;6.72;;;4.72;;
48189;SDS011;33980;47.436;18.926;2023-11-21T00:23:50;8.68;;;4.47;;
48189;SDS011;33980;47.436;18.926;2023-11-21T00:26:20;8.80;;;4.80;;
48189;SDS011;33980;47.436;18.926;2023-11-21T00:28:55;6.75;;;3.47;;
48189;SDS011;33980;47.436;18.926;2023-11-21T00:31:24;9.07;;;5.03;;
48189;SDS011;33980;47.436;18.926;2023-11-21T00:33:52;8.65;;;4.65;;
48189;SDS011;33980;47.436;18.926;2023-11-21T00:36:22;9.38;;;4.65;;
48189;SDS011;33980;47.436;18.926;2023-11-21T00:38:51;8.40;;;5.00;;
48189;SDS011;33980;47.436;18.926;2023-11-21T00:41:21;6.60;;;4.25;;
48189;SDS011;33980;47.436;18.926;2023-11-21T00:43:49;8.25;;;4.07;;
48189;SDS011;33980;47.436;18.926;2023-11-21T00:46:18;7.15;;;3.70;;
48189;SDS011;33980;47.436;18.926;2023-11-21T00:48:48;8.00;;;3.50;;
48189;SDS011;33980;47.436;18.926;2023-11-21T00:51:17;5.40;;;3.05;;
48189;SDS011;33980;47.436;18.926;2023-11-21T00:53:47;5.70;;;2.75;;
48189;SDS011;33980;47.436;18.926;2023-11-21T00:56:16;6.93;;;3.90;;
48189;SDS011;33980;47.436;18.926;2023-11-21T00:58:46;4.47;;;2.75;;
48189;SDS011;33980;47.436;18.926;2023-11-21T01:01:18;8.52;;;3.15;;
48189;SDS011;33980;47.436;18.926;2023-11-21T01:03:47;9.20;;;3.65;;
48189;SDS011;33980;47.436;18.926;2023-11-21T01:06:15;7.82;;;3.95;;
48189;SDS011;33980;47.436;18.926;2023-11-21T01:08:44;4.87;;;3.67;;
48189;SDS011;33980;47.436;18.926;2023-11-21T01:11:15;8.35;;;3.97;;
48189;SDS011;33980;47.436;18.926;2023-11-21T01:16:14;7.37;;;4.32;;
48189;SDS011;33980;47.436;18.926;2023-11-21T01:18:43;6.60;;;3.25;;
48189;SDS011;33980;47.436;18.926;2023-11-21T01:21:12;7.57;;;3.67;;
48189;SDS011;33980;47.436;18.926;2023-11-21T01:23:41;6.00;;;3.47;;
48189;SDS011;33980;47.436;18.926;2023-11-21T01:26:10;5.10;;;2.75;;
48189;SDS011;33980;47.436;18.926;2023-11-21T01:28:39;9.13;;;3.90;;
48189;SDS011;33980;47.436;18.926;2023-11-21T01:31:09;12.10;;;4.30;;
48189;SDS011;33980;47.436;18.926;2023-11-21T01:33:37;4.60;;;2.75;;
48189;SDS011;33980;47.436;18.926;2023-11-21T01:36:07;5.10;;;3.28;;
48189;SDS011;33980;47.436;18.926;2023-11-21T01:38:36;5.97;;;3.47;;
48189;SDS011;33980;47.436;18.926;2023-11-21T01:41:06;7.57;;;2.92;;
48189;SDS011;33980;47.436;18.926;2023-11-21T01:43:34;3.67;;;2.65;;
48189;SDS011;33980;47.436;18.926;2023-11-21T01:46:04;4.80;;;3.15;;
48189;SDS011;33980;47.436;18.926;2023-11-21T01:48:37;4.93;;;3.10;;
48189;SDS011;33980;47.436;18.926;2023-11-21T01:51:06;4.45;;;3.25;;
48189;SDS011;33980;47.436;18.926;2023-11-21T01:53:35;7.47;;;4.03;;
48189;SDS011;33980;47.436;18.926;2023-11-21T01:56:05;4.82;;;2.87;;
48189;SDS011;33980;47.436;18.926;2023-11-21T01:58:38;4.68;;;2.78;;
48189;SDS011;33980;47.436;18.926;2023-11-21T02:01:07;6.22;;;3.45;;
48189;SDS011;33980;47.436;18.926;2023-11-21T02:03:38;4.90;;;2.85;;
48189;SDS011;33980;47.436;18.926;2023-11-21T02:06:07;7.15;;;3.60;;
48189;SDS011;33980;47.436;18.926;2023-11-21T02:08:37;7.45;;;3.40;;
48189;SDS011;33980;47.436;18.926;2023-11-21T02:11:06;6.78;;;3.80;;
48189;SDS011;33980;47.436;18.926;2023-11-21T02:13:36;4.78;;;2.65;;
48189;SDS011;33980;47.436;18.926;2023-11-21T02:16:06;3.08;;;2.25;;
48189;SDS011;33980;47.436;18.926;2023-11-21T02:18:36;5.45;;;3.22;;
48189;SDS011;33980;47.436;18.926;2023-11-21T02:21:07;4.35;;;2.50;;
48189;SDS011;33980;47.436;18.926;2023-11-21T02:23:38;4.82;;;2.50;;
48189;SDS011;33980;47.436;18.926;2023-11-21T02:26:12;5.37;;;2.92;;
48189;SDS011;33980;47.436;18.926;2023-11-21T02:28:41;4.18;;;2.95;;
48189;SDS011;33980;47.436;18.926;2023-11-21T02:31:09;10.80;;;3.00;;
48189;SDS011;33980;47.436;18.926;2023-11-21T02:33:40;3.70;;;2.78;;
48189;SDS011;33980;47.436;18.926;2023-11-21T02:36:08;5.68;;;3.03;;
48189;SDS011;33980;47.436;18.926;2023-11-21T02:38:39;6.68;;;3.60;;
48189;SDS011;33980;47.436;18.926;2023-11-21T02:41:08;6.40;;;3.50;;
48189;SDS011;33980;47.436;18.926;2023-11-21T02:43:36;3.83;;;2.30;;
48189;SDS011;33980;47.436;18.926;2023-11-21T02:46:08;4.47;;;2.65;;
48189;SDS011;33980;47.436;18.926;2023-11-21T02:48:39;4.93;;;2.80;;
48189;SDS011;33980;47.436;18.926;2023-11-21T02:51:11;5.70;;;2.85;;
48189;SDS011;33980;47.436;18.926;2023-11-21T02:53:42;3.85;;;2.30;;
48189;SDS011;33980;47.436;18.926;2023-11-21T02:56:10;3.97;;;2.40;;
48189;SDS011;33980;47.436;18.926;2023-11-21T02:58:41;4.93;;;2.83;;
48189;SDS011;33980;47.436;18.926;2023-11-21T03:01:10;3.00;;;2.53;;
48189;SDS011;33980;47.436;18.926;2023-11-21T03:03:40;3.28;;;2.00;;
48189;SDS011;33980;47.436;18.926;2023-11-21T03:06:09;9.70;;;2.40;;
48189;SDS011;33980;47.436;18.926;2023-11-21T03:08:38;3.90;;;2.45;;
48189;SDS011;33980;47.436;18.926;2023-11-21T03:11:08;3.25;;;2.05;;
48189;SDS011;33980;47.436;18.926;2023-11-21T03:13:38;2.78;;;1.85;;
48189;SDS011;33980;47.436;18.926;2023-11-21T03:16:08;5.30;;;2.28;;
48189;SDS011;33980;47.436;18.926;2023-11-21T03:18:38;3.45;;;2.40;;
48189;SDS011;33980;47.436;18.926;2023-11-21T03:21:07;4.80;;;2.60;;
48189;SDS011;33980;47.436;18.926;2023-11-21T03:23:36;6.68;;;3.62;;
48189;SDS011;33980;47.436;18.926;2023-11-21T03:26:05;5.40;;;3.55;;
48189;SDS011;33980;47.436;18.926;2023-11-21T03:28:37;6.50;;;2.92;;
48189;SDS011;33980;47.436;18.926;2023-11-21T03:31:06;7.83;;;3.03;;
48189;SDS011;33980;47.436;18.926;2023-11-21T03:33:36;4.50;;;3.10;;
48189;SDS011;33980;47.436;18.926;2023-11-21T03:36:05;4.25;;;2.70;;
48189;SDS011;33980;47.436;18.926;2023-11-21T03:38:39;6.82;;;2.85;;
48189;SDS011;33980;47.436;18.926;2023-11-21T03:41:08;2.35;;;1.98;;
48189;SDS011;33980;47.436;18.926;2023-11-21T03:43:39;4.35;;;3.15;;
48189;SDS011;33980;47.436;18.926;2023-11-21T03:46:08;3.72;;;2.25;;
48189;SDS011;33980;47.436;18.926;2023-11-21T03:48:37;4.53;;;2.45;;
48189;SDS011;33980;47.436;18.926;2023-11-21T03:51:06;6.15;;;3.00;;
48189;SDS011;33980;47.436;18.926;2023-11-21T03:53:35;5.20;;;2.62;;
48189;SDS011;33980;47.436;18.926;2023-11-21T03:56:04;8.10;;;3.37;;
48189;SDS011;33980;47.436;18.926;2023-11-21T03:58:33;5.78;;;3.22;;
48189;SDS011;33980;47.436;18.926;2023-11-21T04:01:04;5.03;;;3.30;;
48189;SDS011;33980;47.436;18.926;2023-11-21T04:03:33;3.62;;;2.97;;
48189;SDS011;33980;47.436;18.926;2023-11-21T04:06:02;5.45;;;2.85;;
48189;SDS011;33980;47.436;18.926;2023-11-21T04:08:30;3.65;;;2.50;;
48189;SDS011;33980;47.436;18.926;2023-11-21T04:11:01;5.30;;;2.45;;
48189;SDS011;33980;47.436;18.926;2023-11-21T04:13:29;5.00;;;2.90;;
48189;SDS011;33980;47.436;18.926;2023-11-21T04:15:58;3.90;;;2.40;;
48189;SDS011;33980;47.436;18.926;2023-11-21T04:18:32;3.55;;;2.30;;
48189;SDS011;33980;47.436;18.926;2023-11-21T04:21:01;6.57;;;2.72;;
48189;SDS011;33980;47.436;18.926;2023-11-21T04:23:30;4.80;;;2.40;;
48189;SDS011;33980;47.436;18.926;2023-11-21T04:26:02;5.82;;;2.75;;
48189;SDS011;33980;47.436;18.926;2023-11-21T04:28:31;3.90;;;2.10;;
48189;SDS011;33980;47.436;18.926;2023-11-21T04:31:00;5.20;;;2.37;;
48189;SDS011;33980;47.436;18.926;2023-11-21T04:33:29;5.72;;;2.70;;
48189;SDS011;33980;47.436;18.926;2023-11-21T04:36:00;3.83;;;2.50;;
48189;SDS011;33980;47.436;18.926;2023-11-21T04:38:29;8.48;;;2.55;;
48189;SDS011;33980;47.436;18.926;2023-11-21T04:40:57;5.87;;;2.42;;
48189;SDS011;33980;47.436;18.926;2023-11-21T04:43:30;4.78;;;3.00;;
48189;SDS011;33980;47.436;18.926;2023-11-21T04:45:58;6.40;;;3.00;;
48189;SDS011;33980;47.436;18.926;2023-11-21T04:48:27;5.57;;;3.35;;
48189;SDS011;33980;47.436;18.926;2023-11-21T04:50:56;4.55;;;2.85;;
48189;SDS011;33980;47.436;18.926;2023-11-21T04:53:26;5.20;;;2.92;;
48189;SDS011;33980;47.436;18.926;2023-11-21T04:55:55;6.95;;;3.40;;
48189;SDS011;33980;47.436;18.926;2023-11-21T04:58:24;6.12;;;2.72;;
48189;SDS011;33980;47.436;18.926;2023-11-21T05:00:53;3.50;;;2.60;;
48189;SDS011;33980;47.436;18.926;2023-11-21T05:03:22;4.60;;;3.22;;
48189;SDS011;33980;47.436;18.926;2023-11-21T05:05:52;4.30;;;2.78;;
48189;SDS011;33980;47.436;18.926;2023-11-21T05:08:20;6.10;;;3.10;;
48189;SDS011;33980;47.436;18.926;2023-11-21T05:13:22;7.47;;;3.03;;
48189;SDS011;33980;47.436;18.926;2023-11-21T05:15:55;4.95;;;2.28;;
48189;SDS011;33980;47.436;18.926;2023-11-21T05:18:25;6.95;;;3.60;;
48189;SDS011;33980;47.436;18.926;2023-11-21T05:20:54;5.40;;;2.90;;
48189;SDS011;33980;47.436;18.926;2023-11-21T05:23:23;5.65;;;2.47;;
48189;SDS011;33980;47.436;18.926;2023-11-21T05:25:53;7.57;;;2.87;;
48189;SDS011;33980;47.436;18.926;2023-11-21T05:28:23;6.20;;;2.75;;
48189;SDS011;33980;47.436;18.926;2023-11-21T05:30:52;6.47;;;3.12;;
48189;SDS011;33980;47.436;18.926;2023-11-21T05:33:36;5.80;;;2.67;;
48189;SDS011;33980;47.436;18.926;2023-11-21T05:36:06;3.70;;;2.37;;
48189;SDS011;33980;47.436;18.926;2023-11-21T05:38:37;6.32;;;3.15;;
48189;SDS011;33980;47.436;18.926;2023-11-21T05:41:07;6.47;;;3.53;;
48189;SDS011;33980;47.436;18.926;2023-11-21T05:43:38;6.15;;;3.35;;
48189;SDS011;33980;47.436;18.926;2023-11-21T05:46:07;15.13;;;3.78;;
48189;SDS011;33980;47.436;18.926;2023-11-21T05:48:36;7.07;;;3.70;;
48189;SDS011;33980;47.436;18.926;2023-11-21T05:51:06;7.65;;;3.97;;
48189;SDS011;33980;47.436;18.926;2023-11-21T05:53:35;5.45;;;2.72;;
48189;SDS011;33980;47.436;18.926;2023-11-21T05:56:04;4.87;;;2.20;;
48189;SDS011;33980;47.436;18.926;2023-11-21T05:58:34;5.20;;;2.55;;
48189;SDS011;33980;47.436;18.926;2023-11-21T06:01:05;4.93;;;2.85;;
48189;SDS011;33980;47.436;18.926;2023-11-21T06:03:37;4.50;;;2.67;;
48189;SDS011;33980;47.436;18.926;2023-11-21T06:06:06;7.15;;;3.22;;
48189;SDS011;33980;47.436;18.926;2023-11-21T06:08:34;9.73;;;4.47;;
48189;SDS011;33980;47.436;18.926;2023-11-21T06:11:04;8.30;;;4.20;;
48189;SDS011;33980;47.436;18.926;2023-11-21T06:13:34;6.30;;;3.55;;
48189;SDS011;33980;47.436;18.926;2023-11-21T06:16:03;4.95;;;3.12;;
48189;SDS011;33980;47.436;18.926;2023-11-21T06:18:32;6.57;;;3.55;;
48189;SDS011;33980;47.436;18.926;2023-11-21T06:21:02;5.78;;;3.35;;
48189;SDS011;33980;47.436;18.926;2023-11-21T06:23:31;6.85;;;3.90;;
48189;SDS011;33980;47.436;18.926;2023-11-21T06:26:00;8.90;;;4.30;;
48189;SDS011;33980;47.436;18.926;2023-11-21T06:28:28;10.68;;;3.80;;
48189;SDS011;33980;47.436;18.926;2023-11-21T06:30:59;8.48;;;3.55;;
48189;SDS011;33980;47.436;18.926;2023-11-21T06:33:32;5.75;;;3.47;;
48189;SDS011;33980;47.436;18.926;2023-11-21T06:36:01;4.60;;;2.90;;
48189;SDS011;33980;47.436;18.926;2023-11-21T06:38:30;3.70;;;2.35;;
48189;SDS011;33980;47.436;18.926;2023-11-21T06:40:59;3.95;;;2.22;;
48189;SDS011;33980;47.436;18.926;2023-11-21T06:43:29;9.27;;;2.78;;
48189;SDS011;33980;47.436;18.926;2023-11-21T06:46:00;3.30;;;2.25;;
48189;SDS011;33980;47.436;18.926;2023-11-21T06:48:29;3.65;;;2.05;;
48189;SDS011;33980;47.436;18.926;2023-11-21T06:50:58;4.70;;;2.78;;
48189;SDS011;33980;47.436;18.926;2023-11-21T06:53:27;5.10;;;2.37;;
48189;SDS011;33980;47.436;18.926;2023-11-21T06:55:56;3.87;;;2.42;;
48189;SDS011;33980;47.436;18.926;2023-11-21T06:58:24;6.00;;;3.00;;
48189;SDS011;33980;47.436;18.926;2023-11-21T07:00:53;4.22;;;2.25;;
48189;SDS011;33980;47.436;18.926;2023-11-21T07:03:24;3.17;;;2.25;;
48189;SDS011;33980;47.436;18.926;2023-11-21T07:05:53;3.08;;;2.35;;
48189;SDS011;33980;47.436;18.926;2023-11-21T07:08:22;3.60;;;2.42;;
48189;SDS011;33980;47.436;18.926;2023-11-21T07:10:51;3.60;;;2.65;;
48189;SDS011;33980;47.436;18.926;2023-11-21T07:13:20;6.25;;;2.60;;
48189;SDS011;33980;47.436;18.926;2023-11-21T07:15:49;10.20;;;2.85;;
48189;SDS011;33980;47.436;18.926;2023-11-21T07:18:17;5.28;;;3.28;;
48189;SDS011;33980;47.436;18.926;2023-11-21T07:20:48;3.78;;;2.60;;
48189;SDS011;33980;47.436;18.926;2023-11-21T07:23:16;6.32;;;3.47;;
48189;SDS011;33980;47.436;18.926;2023-11-21T07:25:45;13.32;;;3.97;;
48189;SDS011;33980;47.436;18.926;2023-11-21T07:28:14;4.95;;;2.75;;
48189;SDS011;33980;47.436;18.926;2023-11-21T07:30:44;5.32;;;3.05;;
48189;SDS011;33980;47.436;18.926;2023-11-21T07:33:13;5.87;;;2.75;;
48189;SDS011;33980;47.436;18.926;2023-11-21T07:35:42;5.20;;;2.78;;
48189;SDS011;33980;47.436;18.926;2023-11-21T07:38:12;3.80;;;2.00;;
48189;SDS011;33980;47.436;18.926;2023-11-21T07:40:41;4.22;;;2.45;;
48189;SDS011;33980;47.436;18.926;2023-11-21T07:43:10;3.72;;;2.37;;
48189;SDS011;33980;47.436;18.926;2023-11-21T07:45:39;4.87;;;2.65;;
48189;SDS011;33980;47.436;18.926;2023-11-21T07:48:11;4.30;;;2.33;;
48189;SDS011;33980;47.436;18.926;2023-11-21T07:50:39;5.80;;;2.83;;
48189;SDS011;33980;47.436;18.926;2023-11-21T07:53:08;6.28;;;2.97;;
48189;SDS011;33980;47.436;18.926;2023-11-21T07:55:38;5.18;;;2.67;;
48189;SDS011;33980;47.436;18.926;2023-11-21T07:58:07;4.97;;;2.50;;
48189;SDS011;33980;47.436;18.926;2023-11-21T08:00:36;5.20;;;2.45;;
48189;SDS011;33980;47.436;18.926;2023-11-21T08:03:06;5.28;;;2.42;;
48189;SDS011;33980;47.436;18.926;2023-11-21T08:08:24;5.97;;;3.08;;
48189;SDS011;33980;47.436;18.926;2023-11-21T08:10:54;4.72;;;2.50;;
48189;SDS011;33980;47.436;18.926;2023-11-21T08:13:25;5.03;;;2.97;;
48189;SDS011;33980;47.436;18.926;2023-11-21T08:15:56;6.28;;;3.67;;
48189;SDS011;33980;47.436;18.926;2023-11-21T08:18:29;9.18;;;4.47;;
48189;SDS011;33980;47.436;18.926;2023-11-21T08:20:58;6.78;;;4.45;;
48189;SDS011;33980;47.436;18.926;2023-11-21T08:23:28;8.68;;;3.75;;
48189;SDS011;33980;47.436;18.926;2023-11-21T08:25:58;14.57;;;3.78;;
48189;SDS011;33980;47.436;18.926;2023-11-21T08:28:29;4.55;;;2.90;;
48189;SDS011;33980;47.436;18.926;2023-11-21T08:30:58;8.82;;;4.40;;
48189;SDS011;33980;47.436;18.926;2023-11-21T08:33:28;6.18;;;3.35;;
48189;SDS011;33980;47.436;18.926;2023-11-21T08:35:57;8.05;;;3.25;;
48189;SDS011;33980;47.436;18.926;2023-11-21T08:38:28;7.03;;;2.92;;
48189;SDS011;33980;47.436;18.926;2023-11-21T08:40:58;7.82;;;3.85;;
48189;SDS011;33980;47.436;18.926;2023-11-21T08:43:27;13.48;;;4.37;;
48189;SDS011;33980;47.436;18.926;2023-11-21T08:45:56;5.95;;;3.25;;
48189;SDS011;33980;47.436;18.926;2023-11-21T08:48:25;7.78;;;3.58;;
48189;SDS011;33980;47.436;18.926;2023-11-21T08:50:55;7.15;;;2.97;;
48189;SDS011;33980;47.436;18.926;2023-11-21T08:53:25;5.03;;;3.33;;
48189;SDS011;33980;47.436;18.926;2023-11-21T08:55:53;5.18;;;2.58;;
48189;SDS011;33980;47.436;18.926;2023-11-21T08:58:24;4.62;;;2.97;;
48189;SDS011;33980;47.436;18.926;2023-11-21T09:00:53;4.50;;;2.60;;
48189;SDS011;33980;47.436;18.926;2023-11-21T09:03:22;8.18;;;4.05;;
48189;SDS011;33980;47.436;18.926;2023-11-21T09:05:50;6.03;;;2.83;;
48189;SDS011;33980;47.436;18.926;2023-11-21T09:08:20;6.15;;;3.00;;
48189;SDS011;33980;47.436;18.926;2023-11-21T09:10:49;5.47;;;2.72;;
48189;SDS011;33980;47.436;18.926;2023-11-21T09:13:20;4.25;;;2.78;;
48189;SDS011;33980;47.436;18.926;2023-11-21T09:15:52;5.33;;;3.60;;
48189;SDS011;33980;47.436;18.926;2023-11-21T09:18:21;5.90;;;2.75;;
48189;SDS011;33980;47.436;18.926;2023-11-21T09:20:50;7.53;;;2.85;;
48189;SDS011;33980;47.436;18.926;2023-11-21T09:23:18;2.62;;;2.12;;
48189;SDS011;33980;47.436;18.926;2023-11-21T09:25:48;5.93;;;3.08;;
48189;SDS011;33980;47.436;18.926;2023-11-21T09:28:17;6.87;;;3.22;;
48189;SDS011;33980;47.436;18.926;2023-11-21T09:30:46;6.75;;;3.80;;
48189;SDS011;33980;47.436;18.926;2023-11-21T09:33:18;7.43;;;3.37;;
48189;SDS011;33980;47.436;18.926;2023-11-21T09:38:18;8.32;;;4.37;;
48189;SDS011;33980;47.436;18.926;2023-11-21T09:40:46;7.55;;;3.50;;
48189;SDS011;33980;47.436;18.926;2023-11-21T09:46:47;9.35;;;3.62;;
48189;SDS011;33980;47.436;18.926;2023-11-21T09:49:19;6.40;;;3.53;;
48189;SDS011;33980;47.436;18.926;2023-11-21T09:51:50;5.30;;;2.70;;
48189;SDS011;33980;47.436;18.926;2023-11-21T09:54:20;6.80;;;3.40;;
48189;SDS011;33980;47.436;18.926;2023-11-21T09:56:49;6.12;;;3.05;;
48189;SDS011;33980;47.436;18.926;2023-11-21T09:59:18;5.68;;;3.40;;
48189;SDS011;33980;47.436;18.926;2023-11-21T10:01:48;5.07;;;3.05;;
48189;SDS011;33980;47.436;18.926;2023-11-21T10:04:19;5.50;;;2.92;;
48189;SDS011;33980;47.436;18.926;2023-11-21T10:06:48;7.45;;;3.67;;
48189;SDS011;33980;47.436;18.926;2023-11-21T10:09:18;6.18;;;3.47;;
48189;SDS011;33980;47.436;18.926;2023-11-21T10:11:48;4.97;;;3.03;;
48189;SDS011;33980;47.436;18.926;2023-11-21T10:14:18;6.45;;;2.80;;
48189;SDS011;33980;47.436;18.926;2023-11-21T10:16:50;4.35;;;2.72;;
48189;SDS011;33980;47.436;18.926;2023-11-21T10:19:21;5.03;;;3.03;;
48189;SDS011;33980;47.436;18.926;2023-11-21T10:21:54;5.80;;;2.87;;
48189;SDS011;33980;47.436;18.926;2023-11-21T10:26:57;10.25;;;3.00;;
48189;SDS011;33980;47.436;18.926;2023-11-21T10:29:28;12.10;;;3.08;;
48189;SDS011;33980;47.436;18.926;2023-11-21T10:31:57;3.87;;;2.40;;
48189;SDS011;33980;47.436;18.926;2023-11-21T10:34:27;4.12;;;2.25;;
48189;SDS011;33980;47.436;18.926;2023-11-21T10:36:56;3.37;;;2.10;;
48189;SDS011;33980;47.436;18.926;2023-11-21T10:39:25;6.97;;;3.47;;
48189;SDS011;33980;47.436;18.926;2023-11-21T10:41:58;5.53;;;1.98;;
48189;SDS011;33980;47.436;18.926;2023-11-21T10:44:27;4.57;;;2.35;;
48189;SDS011;33980;47.436;18.926;2023-11-21T10:46:55;8.02;;;2.90;;
48189;SDS011;33980;47.436;18.926;2023-11-21T10:49:25;5.12;;;2.12;;
48189;SDS011;33980;47.436;18.926;2023-11-21T10:51:56;3.67;;;1.92;;
48189;SDS011;33980;47.436;18.926;2023-11-21T10:54:25;5.57;;;2.17;;
48189;SDS011;33980;47.436;18.926;2023-11-21T10:56:56;3.50;;;1.85;;
48189;SDS011;33980;47.436;18.926;2023-11-21T10:59:28;4.25;;;2.10;;
48189;SDS011;33980;47.436;18.926;2023-11-21T11:01:59;3.67;;;2.12;;
48189;SDS011;33980;47.436;18.926;2023-11-21T11:04:31;4.10;;;2.28;;
48189;SDS011;33980;47.436;18.926;2023-11-21T11:07:02;4.03;;;1.92;;
48189;SDS011;33980;47.436;18.926;2023-11-21T11:09:33;3.85;;;2.28;;
48189;SDS011;33980;47.436;18.926;2023-11-21T11:12:01;4.30;;;2.60;;
48189;SDS011;33980;47.436;18.926;2023-11-21T11:14:33;3.70;;;2.08;;
48189;SDS011;33980;47.436;18.926;2023-11-21T11:17:02;6.07;;;1.70;;
48189;SDS011;33980;47.436;18.926;2023-11-21T11:19:33;4.93;;;2.70;;
48189;SDS011;33980;47.436;18.926;2023-11-21T11:22:07;6.30;;;2.60;;
48189;SDS011;33980;47.436;18.926;2023-11-21T11:24:44;4.18;;;2.08;;
48189;SDS011;33980;47.436;18.926;2023-11-21T11:27:24;4.50;;;2.35;;
48189;SDS011;33980;47.436;18.926;2023-11-21T11:30:02;10.00;;;3.03;;
48189;SDS011;33980;47.436;18.926;2023-11-21T11:32:40;6.80;;;2.20;;
48189;SDS011;33980;47.436;18.926;2023-11-21T11:35:17;4.20;;;2.95;;
48189;SDS011;33980;47.436;18.926;2023-11-21T11:37:55;4.55;;;2.42;;
48189;SDS011;33980;47.436;18.926;2023-11-21T11:42:57;3.47;;;1.98;;
48189;SDS011;33980;47.436;18.926;2023-11-21T11:45:31;4.95;;;2.05;;
48189;SDS011;33980;47.436;18.926;2023-11-21T11:48:02;4.85;;;2.20;;
48189;SDS011;33980;47.436;18.926;2023-11-21T11:50:34;3.83;;;2.35;;
48189;SDS011;33980;47.436;18.926;2023-11-21T11:55:57;6.40;;;2.03;;
48189;SDS011;33980;47.436;18.926;2023-11-21T11:58:28;5.62;;;1.87;;
48189;SDS011;33980;47.436;18.926;2023-11-21T12:01:06;6.40;;;2.12;;
48189;SDS011;33980;47.436;18.926;2023-11-21T12:03:36;2.33;;;1.37;;
48189;SDS011;33980;47.436;18.926;2023-11-21T12:06:06;3.42;;;2.20;;
48189;SDS011;33980;47.436;18.926;2023-11-21T12:08:38;4.13;;;2.20;;
48189;SDS011;33980;47.436;18.926;2023-11-21T12:11:06;6.82;;;2.30;;
48189;SDS011;33980;47.436;18.926;2023-11-21T12:13:35;6.07;;;2.33;;
48189;SDS011;33980;47.436;18.926;2023-11-21T12:16:05;4.82;;;2.35;;
48189;SDS011;33980;47.436;18.926;2023-11-21T12:18:35;3.95;;;1.90;;
48189;SDS011;33980;47.436;18.926;2023-11-21T12:21:05;5.35;;;2.75;;
48189;SDS011;33980;47.436;18.926;2023-11-21T12:23:38;5.85;;;2.37;;
48189;SDS011;33980;47.436;18.926;2023-11-21T12:28:37;3.33;;;1.83;;
48189;SDS011;33980;47.436;18.926;2023-11-21T12:31:06;5.47;;;2.22;;
48189;SDS011;33980;47.436;18.926;2023-11-21T12:33:48;4.25;;;2.53;;
48189;SDS011;33980;47.436;18.926;2023-11-21T12:36:17;3.30;;;2.10;;
48189;SDS011;33980;47.436;18.926;2023-11-21T12:38:47;4.43;;;2.17;;
48189;SDS011;33980;47.436;18.926;2023-11-21T12:41:16;3.53;;;1.80;;
48189;SDS011;33980;47.436;18.926;2023-11-21T12:43:45;5.10;;;2.05;;
48189;SDS011;33980;47.436;18.926;2023-11-21T12:46:15;4.00;;;1.75;;
48189;SDS011;33980;47.436;18.926;2023-11-21T12:48:44;3.87;;;1.67;;
48189;SDS011;33980;47.436;18.926;2023-11-21T12:51:13;4.35;;;2.42;;
48189;SDS011;33980;47.436;18.926;2023-11-21T12:53:43;3.97;;;2.15;;
48189;SDS011;33980;47.436;18.926;2023-11-21T12:56:14;3.87;;;2.00;;
48189;SDS011;33980;47.436;18.926;2023-11-21T12:58:44;2.50;;;1.73;;
48189;SDS011;33980;47.436;18.926;2023-11-21T13:01:14;3.55;;;2.42;;
48189;SDS011;33980;47.436;18.926;2023-11-21T13:03:46;2.87;;;1.77;;
48189;SDS011;33980;47.436;18.926;2023-11-21T13:06:18;6.47;;;2.12;;
48189;SDS011;33980;47.436;18.926;2023-11-21T13:08:51;5.82;;;2.37;;
48189;SDS011;33980;47.436;18.926;2023-11-21T13:11:22;3.95;;;2.35;;
48189;SDS011;33980;47.436;18.926;2023-11-21T13:13:53;6.40;;;2.83;;
48189;SDS011;33980;47.436;18.926;2023-11-21T13:16:23;6.12;;;2.50;;
48189;SDS011;33980;47.436;18.926;2023-11-21T13:18:52;4.75;;;2.30;;
48189;SDS011;33980;47.436;18.926;2023-11-21T13:21:21;6.95;;;2.45;;
48189;SDS011;33980;47.436;18.926;2023-11-21T13:23:50;6.03;;;2.95;;
48189;SDS011;33980;47.436;18.926;2023-11-21T13:26:20;3.83;;;2.12;;
48189;SDS011;33980;47.436;18.926;2023-11-21T13:28:52;3.97;;;2.47;;
48189;SDS011;33980;47.436;18.926;2023-11-21T13:31:21;6.55;;;2.45;;
48189;SDS011;33980;47.436;18.926;2023-11-21T13:33:54;4.68;;;2.60;;
48189;SDS011;33980;47.436;18.926;2023-11-21T13:36:26;5.72;;;2.67;;
48189;SDS011;33980;47.436;18.926;2023-11-21T13:38:59;6.18;;;2.53;;
48189;SDS011;33980;47.436;18.926;2023-11-21T13:41:32;4.50;;;2.62;;
48189;SDS011;33980;47.436;18.926;2023-11-21T13:44:02;5.35;;;3.03;;
48189;SDS011;33980;47.436;18.926;2023-11-21T13:46:43;5.37;;;3.10;;
48189;SDS011;33980;47.436;18.926;2023-11-21T13:49:14;6.87;;;2.50;;
48189;SDS011;33980;47.436;18.926;2023-11-21T13:51:43;4.87;;;2.35;;
48189;SDS011;33980;47.436;18.926;2023-11-21T13:54:15;11.82;;;3.28;;
48189;SDS011;33980;47.436;18.926;2023-11-21T13:56:47;4.22;;;2.58;;
48189;SDS011;33980;47.436;18.926;2023-11-21T13:59:19;5.82;;;3.03;;
48189;SDS011;33980;47.436;18.926;2023-11-21T14:01:51;6.62;;;2.92;;
48189;SDS011;33980;47.436;18.926;2023-11-21T14:04:25;6.53;;;3.12;;
48189;SDS011;33980;47.436;18.926;2023-11-21T14:07:14;6.10;;;2.60;;
48189;SDS011;33980;47.436;18.926;2023-11-21T14:09:53;6.82;;;3.00;;
48189;SDS011;33980;47.436;18.926;2023-11-21T14:12:23;4.03;;;2.37;;
48189;SDS011;33980;47.436;18.926;2023-11-21T14:14:53;5.00;;;2.47;;
48189;SDS011;33980;47.436;18.926;2023-11-21T14:17:22;4.50;;;2.72;;
48189;SDS011;33980;47.436;18.926;2023-11-21T14:19:51;4.82;;;2.20;;
48189;SDS011;33980;47.436;18.926;2023-11-21T14:22:23;6.03;;;3.17;;
48189;SDS011;33980;47.436;18.926;2023-11-21T14:24:53;4.03;;;2.37;;
48189;SDS011;33980;47.436;18.926;2023-11-21T14:27:26;4.18;;;2.08;;
48189;SDS011;33980;47.436;18.926;2023-11-21T14:29:57;4.00;;;2.37;;
48189;SDS011;33980;47.436;18.926;2023-11-21T14:32:26;5.30;;;2.55;;
48189;SDS011;33980;47.436;18.926;2023-11-21T14:34:55;4.80;;;2.35;;
48189;SDS011;33980;47.436;18.926;2023-11-21T14:37:26;4.68;;;2.55;;
48189;SDS011;33980;47.436;18.926;2023-11-21T14:39:55;7.10;;;1.98;;
48189;SDS011;33980;47.436;18.926;2023-11-21T14:42:24;6.87;;;2.28;;
48189;SDS011;33980;47.436;18.926;2023-11-21T14:44:58;3.53;;;1.90;;
48189;SDS011;33980;47.436;18.926;2023-11-21T14:47:31;7.12;;;2.60;;
48189;SDS011;33980;47.436;18.926;2023-11-21T14:50:00;4.75;;;2.08;;
48189;SDS011;33980;47.436;18.926;2023-11-21T14:52:49;11.38;;;3.67;;
48189;SDS011;33980;47.436;18.926;2023-11-21T14:55:23;8.93;;;3.33;;
48189;SDS011;33980;47.436;18.926;2023-11-21T14:57:58;8.13;;;3.50;;
48189;SDS011;33980;47.436;18.926;2023-11-21T15:00:33;4.60;;;2.47;;
48189;SDS011;33980;47.436;18.926;2023-11-21T15:03:12;5.78;;;2.80;;
48189;SDS011;33980;47.436;18.926;2023-11-21T15:06:02;4.82;;;2.00;;
48189;SDS011;33980;47.436;18.926;2023-11-21T15:08:49;5.25;;;2.40;;
48189;SDS011;33980;47.436;18.926;2023-11-21T15:11:35;9.52;;;2.62;;
48189;SDS011;33980;47.436;18.926;2023-11-21T15:14:05;4.55;;;2.17;;
48189;SDS011;33980;47.436;18.926;2023-11-21T15:16:38;3.78;;;2.03;;